sensor_id;sensor_type;location;lat;lon;timestamp;P1;durP1;ratioP1;P2;durP2;ratioP2
2772;SDS011;1394;47.044;15.744;2023-06-01T00:01:25;26.17;;;2.63;;
2772;SDS011;1394;47.044;15.744;2023-06-01T00:03:58;25.33;;;2.30;;
2772;SDS011;1394;47.044;15.744;2023-06-01T00:06:25;25.33;;;2.40;;
2772;SDS011;1394;47.044;15.744;2023-06-01T00:08:55;25.50;;;2.53;;
2772;SDS011;1394;47.044;15.744;2023-06-01T00:11:27;25.53;;;2.27;;
2772;SDS011;1394;47.044;15.744;2023-06-01T00:13:54;26.67;;;2.47;;
2772;SDS011;1394;47.044;15.744;2023-06-01T00:16:21;27.50;;;2.70;;
2772;SDS011;1394;47.044;15.744;2023-06-01T00:18:48;25.83;;;2.73;;
2772;SDS011;1394;47.044;15.744;2023-06-01T00:21:17;25.37;;;2.50;;
2772;SDS011;1394;47.044;15.744;2023-06-01T00:23:45;25.83;;;2.77;;
2772;SDS011;1394;47.044;15.744;2023-06-01T00:26:13;29.80;;;2.93;;
2772;SDS011;1394;47.044;15.744;2023-06-01T00:28:43;25.57;;;2.30;;
2772;SDS011;1394;47.044;15.744;2023-06-01T00:31:11;25.40;;;2.67;;
2772;SDS011;1394;47.044;15.744;2023-06-01T00:33:38;25.70;;;2.43;;
2772;SDS011;1394;47.044;15.744;2023-06-01T00:36:05;26.10;;;2.50;;
2772;SDS011;1394;47.044;15.744;2023-06-01T00:38:33;25.80;;;2.73;;
2772;SDS011;1394;47.044;15.744;2023-06-01T00:41:00;26.03;;;2.40;;
2772;SDS011;1394;47.044;15.744;2023-06-01T00:43:28;26.57;;;2.70;;
2772;SDS011;1394;47.044;15.744;2023-06-01T00:45:58;25.60;;;2.70;;
2772;SDS011;1394;47.044;15.744;2023-06-01T00:48:26;26.60;;;2.80;;
2772;SDS011;1394;47.044;15.744;2023-06-01T00:50:53;25.60;;;2.60;;
2772;SDS011;1394;47.044;15.744;2023-06-01T00:53:22;26.30;;;2.60;;
2772;SDS011;1394;47.044;15.744;2023-06-01T00:55:49;25.80;;;2.70;;
2772;SDS011;1394;47.044;15.744;2023-06-01T00:58:17;25.97;;;2.73;;
2772;SDS011;1394;47.044;15.744;2023-06-01T01:00:44;25.70;;;2.70;;
2772;SDS011;1394;47.044;15.744;2023-06-01T01:03:14;25.60;;;2.60;;
2772;SDS011;1394;47.044;15.744;2023-06-01T01:05:42;26.80;;;2.53;;
2772;SDS011;1394;47.044;15.744;2023-06-01T01:08:13;25.53;;;2.47;;
2772;SDS011;1394;47.044;15.744;2023-06-01T01:10:44;25.47;;;2.60;;
2772;SDS011;1394;47.044;15.744;2023-06-01T01:13:13;25.70;;;2.70;;
2772;SDS011;1394;47.044;15.744;2023-06-01T01:15:44;25.90;;;2.70;;
2772;SDS011;1394;47.044;15.744;2023-06-01T01:18:15;25.80;;;2.37;;
2772;SDS011;1394;47.044;15.744;2023-06-01T01:20:46;25.53;;;2.50;;
2772;SDS011;1394;47.044;15.744;2023-06-01T01:23:19;25.83;;;2.70;;
2772;SDS011;1394;47.044;15.744;2023-06-01T01:25:58;25.50;;;2.60;;
2772;SDS011;1394;47.044;15.744;2023-06-01T01:28:31;25.57;;;2.70;;
2772;SDS011;1394;47.044;15.744;2023-06-01T01:31:00;26.03;;;2.70;;
2772;SDS011;1394;47.044;15.744;2023-06-01T01:33:28;25.80;;;2.70;;
2772;SDS011;1394;47.044;15.744;2023-06-01T01:35:55;26.13;;;2.80;;
2772;SDS011;1394;47.044;15.744;2023-06-01T01:38:23;25.27;;;2.60;;
2772;SDS011;1394;47.044;15.744;2023-06-01T01:40:50;26.03;;;2.93;;
2772;SDS011;1394;47.044;15.744;2023-06-01T01:43:17;25.50;;;2.50;;
2772;SDS011;1394;47.044;15.744;2023-06-01T01:45:46;26.50;;;2.90;;
2772;SDS011;1394;47.044;15.744;2023-06-01T01:48:17;25.23;;;2.23;;
2772;SDS011;1394;47.044;15.744;2023-06-01T01:50:49;25.30;;;2.40;;
2772;SDS011;1394;47.044;15.744;2023-06-01T01:53:17;25.87;;;2.63;;
2772;SDS011;1394;47.044;15.744;2023-06-01T01:55:46;26.00;;;2.43;;
2772;SDS011;1394;47.044;15.744;2023-06-01T01:58:14;25.37;;;2.43;;
2772;SDS011;1394;47.044;15.744;2023-06-01T02:00:41;25.83;;;2.50;;
2772;SDS011;1394;47.044;15.744;2023-06-01T02:03:13;25.27;;;2.30;;
2772;SDS011;1394;47.044;15.744;2023-06-01T02:05:41;25.73;;;2.30;;
2772;SDS011;1394;47.044;15.744;2023-06-01T02:08:08;26.27;;;2.63;;
2772;SDS011;1394;47.044;15.744;2023-06-01T02:10:36;26.13;;;2.57;;
2772;SDS011;1394;47.044;15.744;2023-06-01T02:13:03;25.27;;;2.50;;
2772;SDS011;1394;47.044;15.744;2023-06-01T02:15:30;25.50;;;2.43;;
2772;SDS011;1394;47.044;15.744;2023-06-01T02:17:57;25.20;;;2.27;;
2772;SDS011;1394;47.044;15.744;2023-06-01T02:20:26;26.33;;;2.63;;
2772;SDS011;1394;47.044;15.744;2023-06-01T02:22:54;25.20;;;2.50;;
2772;SDS011;1394;47.044;15.744;2023-06-01T02:25:21;26.20;;;2.80;;
2772;SDS011;1394;47.044;15.744;2023-06-01T02:27:52;25.60;;;2.87;;
2772;SDS011;1394;47.044;15.744;2023-06-01T02:30:19;25.37;;;2.60;;
2772;SDS011;1394;47.044;15.744;2023-06-01T02:32:47;25.83;;;2.80;;
2772;SDS011;1394;47.044;15.744;2023-06-01T02:35:14;25.10;;;2.47;;
2772;SDS011;1394;47.044;15.744;2023-06-01T02:37:42;25.67;;;2.73;;
2772;SDS011;1394;47.044;15.744;2023-06-01T02:40:10;25.47;;;2.50;;
2772;SDS011;1394;47.044;15.744;2023-06-01T02:42:37;25.53;;;2.60;;
2772;SDS011;1394;47.044;15.744;2023-06-01T02:45:08;25.90;;;2.83;;
2772;SDS011;1394;47.044;15.744;2023-06-01T02:47:35;25.27;;;2.43;;
2772;SDS011;1394;47.044;15.744;2023-06-01T02:50:02;25.20;;;2.70;;
2772;SDS011;1394;47.044;15.744;2023-06-01T02:52:30;25.20;;;2.37;;
2772;SDS011;1394;47.044;15.744;2023-06-01T02:54:59;25.83;;;2.60;;
2772;SDS011;1394;47.044;15.744;2023-06-01T02:57:26;27.00;;;2.57;;
2772;SDS011;1394;47.044;15.744;2023-06-01T02:59:53;25.90;;;2.47;;
2772;SDS011;1394;47.044;15.744;2023-06-01T03:02:21;25.83;;;2.60;;
2772;SDS011;1394;47.044;15.744;2023-06-01T03:04:48;25.37;;;2.37;;
2772;SDS011;1394;47.044;15.744;2023-06-01T03:07:15;25.30;;;2.47;;
2772;SDS011;1394;47.044;15.744;2023-06-01T03:09:44;25.67;;;2.70;;
2772;SDS011;1394;47.044;15.744;2023-06-01T03:12:12;25.17;;;2.30;;
2772;SDS011;1394;47.044;15.744;2023-06-01T03:14:39;25.40;;;2.33;;
2772;SDS011;1394;47.044;15.744;2023-06-01T03:17:07;25.67;;;2.23;;
2772;SDS011;1394;47.044;15.744;2023-06-01T03:19:37;25.20;;;2.47;;
2772;SDS011;1394;47.044;15.744;2023-06-01T03:22:05;25.20;;;2.50;;
2772;SDS011;1394;47.044;15.744;2023-06-01T03:24:34;25.10;;;2.40;;
2772;SDS011;1394;47.044;15.744;2023-06-01T03:27:01;25.43;;;2.70;;
2772;SDS011;1394;47.044;15.744;2023-06-01T03:29:31;26.17;;;2.70;;
2772;SDS011;1394;47.044;15.744;2023-06-01T03:31:59;25.87;;;2.63;;
2772;SDS011;1394;47.044;15.744;2023-06-01T03:34:26;25.23;;;2.63;;
2772;SDS011;1394;47.044;15.744;2023-06-01T03:36:54;25.47;;;2.87;;
2772;SDS011;1394;47.044;15.744;2023-06-01T03:39:22;26.20;;;2.60;;
2772;SDS011;1394;47.044;15.744;2023-06-01T03:41:50;25.77;;;2.60;;
2772;SDS011;1394;47.044;15.744;2023-06-01T03:44:17;26.07;;;2.90;;
2772;SDS011;1394;47.044;15.744;2023-06-01T03:46:47;26.50;;;2.70;;
2772;SDS011;1394;47.044;15.744;2023-06-01T03:49:14;26.40;;;2.83;;
2772;SDS011;1394;47.044;15.744;2023-06-01T03:51:41;25.40;;;2.70;;
2772;SDS011;1394;47.044;15.744;2023-06-01T03:54:09;25.30;;;2.60;;
2772;SDS011;1394;47.044;15.744;2023-06-01T03:56:36;26.27;;;3.00;;
2772;SDS011;1394;47.044;15.744;2023-06-01T03:59:03;25.30;;;2.63;;
2772;SDS011;1394;47.044;15.744;2023-06-01T04:01:32;25.27;;;2.40;;
2772;SDS011;1394;47.044;15.744;2023-06-01T04:04:02;25.20;;;2.40;;
2772;SDS011;1394;47.044;15.744;2023-06-01T04:06:30;25.70;;;2.57;;
2772;SDS011;1394;47.044;15.744;2023-06-01T04:09:00;26.07;;;2.50;;
2772;SDS011;1394;47.044;15.744;2023-06-01T04:11:31;26.30;;;2.70;;
2772;SDS011;1394;47.044;15.744;2023-06-01T04:13:59;25.97;;;2.83;;
2772;SDS011;1394;47.044;15.744;2023-06-01T04:16:27;25.47;;;2.50;;
2772;SDS011;1394;47.044;15.744;2023-06-01T04:18:54;25.97;;;2.70;;
2772;SDS011;1394;47.044;15.744;2023-06-01T04:21:23;25.53;;;2.50;;
2772;SDS011;1394;47.044;15.744;2023-06-01T04:23:51;25.70;;;2.90;;
2772;SDS011;1394;47.044;15.744;2023-06-01T04:26:18;25.83;;;2.67;;
2772;SDS011;1394;47.044;15.744;2023-06-01T04:28:45;26.20;;;2.97;;
2772;SDS011;1394;47.044;15.744;2023-06-01T04:31:14;25.57;;;2.80;;
2772;SDS011;1394;47.044;15.744;2023-06-01T04:33:43;25.77;;;2.70;;
2772;SDS011;1394;47.044;15.744;2023-06-01T04:36:18;25.37;;;2.60;;
2772;SDS011;1394;47.044;15.744;2023-06-01T04:38:47;25.53;;;2.80;;
2772;SDS011;1394;47.044;15.744;2023-06-01T04:41:18;25.57;;;2.60;;
2772;SDS011;1394;47.044;15.744;2023-06-01T04:43:45;25.53;;;2.60;;
2772;SDS011;1394;47.044;15.744;2023-06-01T04:46:16;25.83;;;2.80;;
2772;SDS011;1394;47.044;15.744;2023-06-01T04:48:45;26.07;;;2.80;;
2772;SDS011;1394;47.044;15.744;2023-06-01T04:51:13;26.07;;;2.80;;
2772;SDS011;1394;47.044;15.744;2023-06-01T04:53:44;25.97;;;2.77;;
2772;SDS011;1394;47.044;15.744;2023-06-01T04:56:16;27.70;;;2.80;;
2772;SDS011;1394;47.044;15.744;2023-06-01T04:58:45;27.83;;;3.17;;
2772;SDS011;1394;47.044;15.744;2023-06-01T05:01:15;25.07;;;2.40;;
2772;SDS011;1394;47.044;15.744;2023-06-01T05:03:43;25.90;;;2.77;;
2772;SDS011;1394;47.044;15.744;2023-06-01T05:06:12;25.90;;;3.00;;
2772;SDS011;1394;47.044;15.744;2023-06-01T05:08:41;25.77;;;2.80;;
2772;SDS011;1394;47.044;15.744;2023-06-01T05:11:09;25.90;;;3.00;;
2772;SDS011;1394;47.044;15.744;2023-06-01T05:13:38;26.10;;;2.60;;
2772;SDS011;1394;47.044;15.744;2023-06-01T05:16:05;25.60;;;2.90;;
2772;SDS011;1394;47.044;15.744;2023-06-01T05:18:33;25.73;;;2.57;;
2772;SDS011;1394;47.044;15.744;2023-06-01T05:21:01;27.03;;;2.80;;
2772;SDS011;1394;47.044;15.744;2023-06-01T05:23:28;27.47;;;2.80;;
2772;SDS011;1394;47.044;15.744;2023-06-01T05:25:57;25.60;;;2.50;;
2772;SDS011;1394;47.044;15.744;2023-06-01T05:28:27;25.50;;;2.80;;
2772;SDS011;1394;47.044;15.744;2023-06-01T05:30:56;25.53;;;2.50;;
2772;SDS011;1394;47.044;15.744;2023-06-01T05:33:24;25.40;;;2.60;;
2772;SDS011;1394;47.044;15.744;2023-06-01T05:35:51;26.20;;;2.33;;
2772;SDS011;1394;47.044;15.744;2023-06-01T05:38:19;26.80;;;2.70;;
2772;SDS011;1394;47.044;15.744;2023-06-01T05:40:46;25.53;;;2.93;;
2772;SDS011;1394;47.044;15.744;2023-06-01T05:43:13;25.50;;;2.60;;
2772;SDS011;1394;47.044;15.744;2023-06-01T05:45:41;25.83;;;3.00;;
2772;SDS011;1394;47.044;15.744;2023-06-01T05:48:11;27.47;;;2.80;;
2772;SDS011;1394;47.044;15.744;2023-06-01T05:50:40;25.80;;;2.70;;
2772;SDS011;1394;47.044;15.744;2023-06-01T05:53:07;25.30;;;2.53;;
2772;SDS011;1394;47.044;15.744;2023-06-01T05:55:34;26.23;;;2.27;;
2772;SDS011;1394;47.044;15.744;2023-06-01T05:58:01;25.60;;;2.33;;
2772;SDS011;1394;47.044;15.744;2023-06-01T06:00:29;26.05;;;2.70;;
2772;SDS011;1394;47.044;15.744;2023-06-01T06:02:56;25.50;;;2.60;;
2772;SDS011;1394;47.044;15.744;2023-06-01T06:05:25;26.10;;;2.60;;
2772;SDS011;1394;47.044;15.744;2023-06-01T06:07:52;27.60;;;2.53;;
2772;SDS011;1394;47.044;15.744;2023-06-01T06:10:21;25.60;;;2.10;;
2772;SDS011;1394;47.044;15.744;2023-06-01T06:12:52;26.13;;;2.57;;
2772;SDS011;1394;47.044;15.744;2023-06-01T06:15:19;26.80;;;2.37;;
2772;SDS011;1394;47.044;15.744;2023-06-01T06:17:46;25.90;;;2.57;;
2772;SDS011;1394;47.044;15.744;2023-06-01T06:20:13;25.87;;;2.57;;
2772;SDS011;1394;47.044;15.744;2023-06-01T06:22:50;25.73;;;2.37;;
2772;SDS011;1394;47.044;15.744;2023-06-01T06:25:17;25.70;;;2.40;;
2772;SDS011;1394;47.044;15.744;2023-06-01T06:27:44;25.67;;;2.30;;
2772;SDS011;1394;47.044;15.744;2023-06-01T06:30:12;26.00;;;2.50;;
2772;SDS011;1394;47.044;15.744;2023-06-01T06:32:40;26.10;;;2.50;;
2772;SDS011;1394;47.044;15.744;2023-06-01T06:35:08;25.60;;;2.60;;
2772;SDS011;1394;47.044;15.744;2023-06-01T06:37:38;25.83;;;2.57;;
2772;SDS011;1394;47.044;15.744;2023-06-01T06:40:08;25.63;;;2.57;;
2772;SDS011;1394;47.044;15.744;2023-06-01T06:42:36;25.90;;;2.50;;
2772;SDS011;1394;47.044;15.744;2023-06-01T06:45:04;26.60;;;2.53;;
2772;SDS011;1394;47.044;15.744;2023-06-01T06:47:31;25.80;;;2.53;;
2772;SDS011;1394;47.044;15.744;2023-06-01T06:49:59;26.30;;;2.73;;
2772;SDS011;1394;47.044;15.744;2023-06-01T06:52:26;27.40;;;2.67;;
2772;SDS011;1394;47.044;15.744;2023-06-01T06:54:53;26.17;;;2.90;;
2772;SDS011;1394;47.044;15.744;2023-06-01T06:57:24;27.00;;;3.10;;
2772;SDS011;1394;47.044;15.744;2023-06-01T06:59:53;25.93;;;2.73;;
2772;SDS011;1394;47.044;15.744;2023-06-01T07:02:23;26.10;;;2.33;;
2772;SDS011;1394;47.044;15.744;2023-06-01T07:04:51;25.50;;;2.07;;
2772;SDS011;1394;47.044;15.744;2023-06-01T07:07:18;28.60;;;2.50;;
2772;SDS011;1394;47.044;15.744;2023-06-01T07:09:45;25.30;;;2.17;;
2772;SDS011;1394;47.044;15.744;2023-06-01T07:12:13;25.83;;;2.30;;
2772;SDS011;1394;47.044;15.744;2023-06-01T07:14:41;25.93;;;2.20;;
2772;SDS011;1394;47.044;15.744;2023-06-01T07:17:08;28.50;;;2.30;;
2772;SDS011;1394;47.044;15.744;2023-06-01T07:19:36;25.50;;;2.20;;
2772;SDS011;1394;47.044;15.744;2023-06-01T07:22:03;28.33;;;2.23;;
2772;SDS011;1394;47.044;15.744;2023-06-01T07:24:33;25.40;;;1.97;;
2772;SDS011;1394;47.044;15.744;2023-06-01T07:27:00;25.30;;;2.10;;
2772;SDS011;1394;47.044;15.744;2023-06-01T07:29:27;25.10;;;1.70;;
2772;SDS011;1394;47.044;15.744;2023-06-01T07:31:56;26.83;;;2.30;;
2772;SDS011;1394;47.044;15.744;2023-06-01T07:34:23;25.47;;;1.77;;
2772;SDS011;1394;47.044;15.744;2023-06-01T07:36:51;25.47;;;2.10;;
2772;SDS011;1394;47.044;15.744;2023-06-01T07:39:18;26.07;;;2.20;;
2772;SDS011;1394;47.044;15.744;2023-06-01T07:41:45;26.50;;;2.10;;
2772;SDS011;1394;47.044;15.744;2023-06-01T07:44:15;26.60;;;2.20;;
2772;SDS011;1394;47.044;15.744;2023-06-01T07:46:43;25.70;;;1.70;;
2772;SDS011;1394;47.044;15.744;2023-06-01T07:49:13;25.10;;;1.80;;
2772;SDS011;1394;47.044;15.744;2023-06-01T07:51:40;25.60;;;1.77;;
2772;SDS011;1394;47.044;15.744;2023-06-01T07:54:08;25.57;;;1.80;;
2772;SDS011;1394;47.044;15.744;2023-06-01T07:56:35;25.10;;;1.67;;
2772;SDS011;1394;47.044;15.744;2023-06-01T07:59:02;25.23;;;1.73;;
2772;SDS011;1394;47.044;15.744;2023-06-01T08:01:30;25.00;;;1.73;;
2772;SDS011;1394;47.044;15.744;2023-06-01T08:03:57;28.20;;;1.90;;
2772;SDS011;1394;47.044;15.744;2023-06-01T08:06:28;25.97;;;1.90;;
2772;SDS011;1394;47.044;15.744;2023-06-01T08:09:01;25.50;;;1.70;;
2772;SDS011;1394;47.044;15.744;2023-06-01T08:11:29;25.77;;;1.50;;
2772;SDS011;1394;47.044;15.744;2023-06-01T08:13:59;24.93;;;1.40;;
2772;SDS011;1394;47.044;15.744;2023-06-01T08:16:28;25.50;;;1.50;;
2772;SDS011;1394;47.044;15.744;2023-06-01T08:18:55;25.73;;;1.50;;
2772;SDS011;1394;47.044;15.744;2023-06-01T08:21:24;25.53;;;1.40;;
2772;SDS011;1394;47.044;15.744;2023-06-01T08:23:53;25.07;;;1.30;;
2772;SDS011;1394;47.044;15.744;2023-06-01T08:26:24;25.77;;;1.40;;
2772;SDS011;1394;47.044;15.744;2023-06-01T08:28:52;25.43;;;1.40;;
2772;SDS011;1394;47.044;15.744;2023-06-01T08:31:19;25.27;;;1.70;;
2772;SDS011;1394;47.044;15.744;2023-06-01T08:33:46;26.17;;;1.60;;
2772;SDS011;1394;47.044;15.744;2023-06-01T08:36:14;26.37;;;1.60;;
2772;SDS011;1394;47.044;15.744;2023-06-01T08:38:41;25.90;;;1.60;;
2772;SDS011;1394;47.044;15.744;2023-06-01T08:41:14;25.47;;;1.70;;
2772;SDS011;1394;47.044;15.744;2023-06-01T08:43:45;25.13;;;1.40;;
2772;SDS011;1394;47.044;15.744;2023-06-01T08:46:15;25.83;;;1.70;;
2772;SDS011;1394;47.044;15.744;2023-06-01T08:48:44;24.67;;;1.40;;
2772;SDS011;1394;47.044;15.744;2023-06-01T08:51:15;24.87;;;1.30;;
2772;SDS011;1394;47.044;15.744;2023-06-01T08:53:44;25.30;;;1.60;;
2772;SDS011;1394;47.044;15.744;2023-06-01T08:56:15;25.63;;;1.43;;
2772;SDS011;1394;47.044;15.744;2023-06-01T08:58:43;25.20;;;1.30;;
2772;SDS011;1394;47.044;15.744;2023-06-01T09:01:13;25.00;;;1.30;;
2772;SDS011;1394;47.044;15.744;2023-06-01T09:03:46;25.30;;;1.57;;
2772;SDS011;1394;47.044;15.744;2023-06-01T09:06:15;25.27;;;1.30;;
2772;SDS011;1394;47.044;15.744;2023-06-01T09:08:42;26.63;;;1.70;;
2772;SDS011;1394;47.044;15.744;2023-06-01T09:11:11;25.47;;;1.70;;
2772;SDS011;1394;47.044;15.744;2023-06-01T09:13:40;25.23;;;1.60;;
2772;SDS011;1394;47.044;15.744;2023-06-01T09:16:07;25.47;;;1.90;;
2772;SDS011;1394;47.044;15.744;2023-06-01T09:18:35;25.07;;;1.53;;
2772;SDS011;1394;47.044;15.744;2023-06-01T09:21:11;25.47;;;1.30;;
2772;SDS011;1394;47.044;15.744;2023-06-01T09:23:39;25.73;;;1.60;;
2772;SDS011;1394;47.044;15.744;2023-06-01T09:26:08;25.93;;;1.60;;
2772;SDS011;1394;47.044;15.744;2023-06-01T09:28:57;25.10;;;1.50;;
2772;SDS011;1394;47.044;15.744;2023-06-01T09:31:38;25.20;;;1.60;;
2772;SDS011;1394;47.044;15.744;2023-06-01T09:34:06;25.73;;;1.40;;
2772;SDS011;1394;47.044;15.744;2023-06-01T09:36:34;25.53;;;1.80;;
2772;SDS011;1394;47.044;15.744;2023-06-01T09:39:02;25.03;;;1.47;;
2772;SDS011;1394;47.044;15.744;2023-06-01T09:44:22;25.27;;;1.50;;
2772;SDS011;1394;47.044;15.744;2023-06-01T09:46:50;25.30;;;1.40;;
2772;SDS011;1394;47.044;15.744;2023-06-01T09:49:20;25.63;;;1.60;;
2772;SDS011;1394;47.044;15.744;2023-06-01T09:51:51;25.40;;;1.60;;
2772;SDS011;1394;47.044;15.744;2023-06-01T09:54:22;25.43;;;1.53;;
2772;SDS011;1394;47.044;15.744;2023-06-01T09:56:49;25.20;;;1.43;;
2772;SDS011;1394;47.044;15.744;2023-06-01T09:59:18;25.57;;;1.67;;
2772;SDS011;1394;47.044;15.744;2023-06-01T10:01:47;25.10;;;1.50;;
2772;SDS011;1394;47.044;15.744;2023-06-01T10:04:16;25.90;;;1.73;;
2772;SDS011;1394;47.044;15.744;2023-06-01T10:06:46;24.90;;;1.43;;
2772;SDS011;1394;47.044;15.744;2023-06-01T10:09:16;24.80;;;1.37;;
2772;SDS011;1394;47.044;15.744;2023-06-01T10:11:46;25.60;;;1.83;;
2772;SDS011;1394;47.044;15.744;2023-06-01T10:14:14;26.00;;;1.70;;
2772;SDS011;1394;47.044;15.744;2023-06-01T10:16:43;25.67;;;1.70;;
2772;SDS011;1394;47.044;15.744;2023-06-01T10:19:10;26.00;;;1.50;;
2772;SDS011;1394;47.044;15.744;2023-06-01T10:21:38;25.60;;;1.73;;
2772;SDS011;1394;47.044;15.744;2023-06-01T10:24:07;25.40;;;1.70;;
2772;SDS011;1394;47.044;15.744;2023-06-01T10:26:37;24.97;;;1.53;;
2772;SDS011;1394;47.044;15.744;2023-06-01T10:29:05;25.00;;;1.60;;
2772;SDS011;1394;47.044;15.744;2023-06-01T10:31:37;26.00;;;2.00;;
2772;SDS011;1394;47.044;15.744;2023-06-01T10:34:08;25.57;;;1.50;;
2772;SDS011;1394;47.044;15.744;2023-06-01T10:39:22;25.80;;;1.97;;
2772;SDS011;1394;47.044;15.744;2023-06-01T10:41:49;25.50;;;1.87;;
2772;SDS011;1394;47.044;15.744;2023-06-01T10:46:58;24.70;;;1.57;;
2772;SDS011;1394;47.044;15.744;2023-06-01T10:52:25;24.90;;;1.37;;
2772;SDS011;1394;47.044;15.744;2023-06-01T10:54:55;25.17;;;1.50;;
2772;SDS011;1394;47.044;15.744;2023-06-01T10:57:23;24.77;;;1.67;;
2772;SDS011;1394;47.044;15.744;2023-06-01T11:02:57;24.90;;;1.60;;
2772;SDS011;1394;47.044;15.744;2023-06-01T11:05:35;25.20;;;1.67;;
2772;SDS011;1394;47.044;15.744;2023-06-01T11:08:04;25.37;;;1.67;;
2772;SDS011;1394;47.044;15.744;2023-06-01T11:13:17;25.20;;;1.57;;
2772;SDS011;1394;47.044;15.744;2023-06-01T11:18:46;25.17;;;1.77;;
2772;SDS011;1394;47.044;15.744;2023-06-01T11:21:23;25.37;;;1.60;;
2772;SDS011;1394;47.044;15.744;2023-06-01T11:23:52;26.27;;;1.50;;
2772;SDS011;1394;47.044;15.744;2023-06-01T11:26:21;27.37;;;1.80;;
2772;SDS011;1394;47.044;15.744;2023-06-01T11:28:51;24.83;;;1.80;;
2772;SDS011;1394;47.044;15.744;2023-06-01T11:31:21;25.13;;;1.60;;
2772;SDS011;1394;47.044;15.744;2023-06-01T11:33:49;25.17;;;1.37;;
2772;SDS011;1394;47.044;15.744;2023-06-01T11:36:18;24.90;;;1.40;;
2772;SDS011;1394;47.044;15.744;2023-06-01T11:38:49;24.70;;;1.40;;
2772;SDS011;1394;47.044;15.744;2023-06-01T11:41:18;25.07;;;1.57;;
2772;SDS011;1394;47.044;15.744;2023-06-01T11:43:53;24.80;;;1.50;;
2772;SDS011;1394;47.044;15.744;2023-06-01T11:46:21;24.60;;;1.40;;
2772;SDS011;1394;47.044;15.744;2023-06-01T11:48:57;25.17;;;1.77;;
2772;SDS011;1394;47.044;15.744;2023-06-01T11:51:31;24.70;;;1.50;;
2772;SDS011;1394;47.044;15.744;2023-06-01T11:54:00;27.10;;;1.40;;
2772;SDS011;1394;47.044;15.744;2023-06-01T11:56:30;25.77;;;1.60;;
2772;SDS011;1394;47.044;15.744;2023-06-01T11:58:58;25.17;;;1.70;;
2772;SDS011;1394;47.044;15.744;2023-06-01T12:01:33;25.27;;;1.60;;
2772;SDS011;1394;47.044;15.744;2023-06-01T12:04:02;25.50;;;1.57;;
2772;SDS011;1394;47.044;15.744;2023-06-01T12:06:33;24.70;;;1.40;;
2772;SDS011;1394;47.044;15.744;2023-06-01T12:09:02;25.80;;;1.70;;
2772;SDS011;1394;47.044;15.744;2023-06-01T12:11:32;24.90;;;1.60;;
2772;SDS011;1394;47.044;15.744;2023-06-01T12:14:02;25.13;;;1.90;;
2772;SDS011;1394;47.044;15.744;2023-06-01T12:19:14;25.23;;;1.63;;
2772;SDS011;1394;47.044;15.744;2023-06-01T12:21:46;24.90;;;1.50;;
2772;SDS011;1394;47.044;15.744;2023-06-01T12:24:14;24.80;;;1.40;;
2772;SDS011;1394;47.044;15.744;2023-06-01T12:26:43;25.30;;;1.50;;
2772;SDS011;1394;47.044;15.744;2023-06-01T12:29:11;25.47;;;1.80;;
2772;SDS011;1394;47.044;15.744;2023-06-01T12:31:38;25.50;;;1.73;;
2772;SDS011;1394;47.044;15.744;2023-06-01T12:34:14;25.40;;;1.60;;
2772;SDS011;1394;47.044;15.744;2023-06-01T12:36:43;25.30;;;1.40;;
2772;SDS011;1394;47.044;15.744;2023-06-01T12:39:11;25.83;;;1.60;;
2772;SDS011;1394;47.044;15.744;2023-06-01T12:41:48;25.73;;;1.70;;
2772;SDS011;1394;47.044;15.744;2023-06-01T12:44:20;25.03;;;1.70;;
2772;SDS011;1394;47.044;15.744;2023-06-01T12:46:47;25.30;;;1.70;;
2772;SDS011;1394;47.044;15.744;2023-06-01T12:49:15;25.23;;;1.70;;
2772;SDS011;1394;47.044;15.744;2023-06-01T12:51:44;25.60;;;1.60;;
2772;SDS011;1394;47.044;15.744;2023-06-01T12:54:12;24.87;;;1.50;;
2772;SDS011;1394;47.044;15.744;2023-06-01T12:56:41;25.63;;;1.60;;
2772;SDS011;1394;47.044;15.744;2023-06-01T12:59:12;25.00;;;1.90;;
2772;SDS011;1394;47.044;15.744;2023-06-01T13:01:42;27.07;;;1.60;;
2772;SDS011;1394;47.044;15.744;2023-06-01T13:04:10;24.53;;;1.33;;
2772;SDS011;1394;47.044;15.744;2023-06-01T13:06:38;25.37;;;1.50;;
2772;SDS011;1394;47.044;15.744;2023-06-01T13:09:09;24.70;;;1.40;;
2772;SDS011;1394;47.044;15.744;2023-06-01T13:11:39;24.87;;;1.60;;
2772;SDS011;1394;47.044;15.744;2023-06-01T13:14:09;25.00;;;1.70;;
2772;SDS011;1394;47.044;15.744;2023-06-01T13:16:39;25.00;;;1.50;;
2772;SDS011;1394;47.044;15.744;2023-06-01T13:19:08;25.00;;;1.60;;
2772;SDS011;1394;47.044;15.744;2023-06-01T13:21:38;24.90;;;1.60;;
2772;SDS011;1394;47.044;15.744;2023-06-01T13:24:05;24.90;;;1.30;;
2772;SDS011;1394;47.044;15.744;2023-06-01T13:26:34;25.23;;;1.40;;
2772;SDS011;1394;47.044;15.744;2023-06-01T13:29:02;26.03;;;1.70;;
2772;SDS011;1394;47.044;15.744;2023-06-01T13:31:34;24.60;;;1.30;;
2772;SDS011;1394;47.044;15.744;2023-06-01T13:34:02;24.60;;;1.57;;
2772;SDS011;1394;47.044;15.744;2023-06-01T13:36:30;25.23;;;1.60;;
2772;SDS011;1394;47.044;15.744;2023-06-01T13:38:58;24.83;;;1.47;;
2772;SDS011;1394;47.044;15.744;2023-06-01T13:41:29;25.50;;;1.43;;
2772;SDS011;1394;47.044;15.744;2023-06-01T13:43:56;24.30;;;1.27;;
2772;SDS011;1394;47.044;15.744;2023-06-01T13:46:23;26.20;;;1.60;;
2772;SDS011;1394;47.044;15.744;2023-06-01T13:48:53;25.00;;;1.50;;
2772;SDS011;1394;47.044;15.744;2023-06-01T13:51:22;24.60;;;1.40;;
2772;SDS011;1394;47.044;15.744;2023-06-01T13:53:50;25.20;;;1.60;;
2772;SDS011;1394;47.044;15.744;2023-06-01T13:56:18;25.17;;;1.40;;
2772;SDS011;1394;47.044;15.744;2023-06-01T13:58:47;24.80;;;1.50;;
2772;SDS011;1394;47.044;15.744;2023-06-01T14:01:14;25.33;;;1.73;;
2772;SDS011;1394;47.044;15.744;2023-06-01T14:03:41;25.57;;;1.80;;
2772;SDS011;1394;47.044;15.744;2023-06-01T14:06:09;25.10;;;1.63;;
2772;SDS011;1394;47.044;15.744;2023-06-01T14:08:38;24.60;;;1.40;;
2772;SDS011;1394;47.044;15.744;2023-06-01T14:11:05;26.10;;;1.40;;
2772;SDS011;1394;47.044;15.744;2023-06-01T14:13:32;24.97;;;1.60;;
2772;SDS011;1394;47.044;15.744;2023-06-01T14:15:59;24.60;;;1.30;;
2772;SDS011;1394;47.044;15.744;2023-06-01T14:18:30;26.80;;;1.50;;
2772;SDS011;1394;47.044;15.744;2023-06-01T14:20:58;24.80;;;1.50;;
2772;SDS011;1394;47.044;15.744;2023-06-01T14:23:26;25.30;;;1.33;;
2772;SDS011;1394;47.044;15.744;2023-06-01T14:25:54;24.93;;;1.27;;
2772;SDS011;1394;47.044;15.744;2023-06-01T14:28:22;25.70;;;1.50;;
2772;SDS011;1394;47.044;15.744;2023-06-01T14:30:50;24.70;;;1.57;;
2772;SDS011;1394;47.044;15.744;2023-06-01T14:33:19;24.60;;;1.67;;
2772;SDS011;1394;47.044;15.744;2023-06-01T14:35:47;25.17;;;1.43;;
2772;SDS011;1394;47.044;15.744;2023-06-01T14:38:15;24.97;;;1.30;;
2772;SDS011;1394;47.044;15.744;2023-06-01T14:40:43;25.13;;;1.40;;
2772;SDS011;1394;47.044;15.744;2023-06-01T14:43:10;24.70;;;1.40;;
2772;SDS011;1394;47.044;15.744;2023-06-01T14:45:39;24.60;;;1.60;;
2772;SDS011;1394;47.044;15.744;2023-06-01T14:48:08;24.87;;;1.47;;
2772;SDS011;1394;47.044;15.744;2023-06-01T14:50:36;24.53;;;1.43;;
2772;SDS011;1394;47.044;15.744;2023-06-01T14:53:03;25.07;;;1.50;;
2772;SDS011;1394;47.044;15.744;2023-06-01T14:55:33;24.67;;;1.50;;
2772;SDS011;1394;47.044;15.744;2023-06-01T14:58:04;25.50;;;1.60;;
2772;SDS011;1394;47.044;15.744;2023-06-01T15:00:33;25.20;;;1.50;;
2772;SDS011;1394;47.044;15.744;2023-06-01T15:03:01;25.57;;;1.70;;
2772;SDS011;1394;47.044;15.744;2023-06-01T15:05:29;25.57;;;1.50;;
2772;SDS011;1394;47.044;15.744;2023-06-01T15:07:56;26.00;;;1.73;;
2772;SDS011;1394;47.044;15.744;2023-06-01T15:10:24;24.80;;;1.30;;
2772;SDS011;1394;47.044;15.744;2023-06-01T15:12:52;25.07;;;1.57;;
2772;SDS011;1394;47.044;15.744;2023-06-01T15:15:21;25.53;;;1.60;;
2772;SDS011;1394;47.044;15.744;2023-06-01T15:17:49;25.50;;;1.33;;
2772;SDS011;1394;47.044;15.744;2023-06-01T15:20:20;24.70;;;1.30;;